sensor_id;sensor_type;location;lat;lon;timestamp;P1;durP1;ratioP1;P2;durP2;ratioP2
11761;SDS011;5938;47.098;15.474;2022-07-06T00:00:13;8.33;;;7.60;;
11761;SDS011;5938;47.098;15.474;2022-07-06T00:04:17;7.80;;;7.10;;
11761;SDS011;5938;47.098;15.474;2022-07-06T00:08:20;7.43;;;6.93;;
11761;SDS011;5938;47.098;15.474;2022-07-06T00:12:25;8.20;;;6.70;;
11761;SDS011;5938;47.098;15.474;2022-07-06T00:16:30;8.60;;;7.77;;
11761;SDS011;5938;47.098;15.474;2022-07-06T00:20:33;8.20;;;7.50;;
11761;SDS011;5938;47.098;15.474;2022-07-06T00:24:37;7.73;;;7.23;;
11761;SDS011;5938;47.098;15.474;2022-07-06T00:28:40;8.10;;;7.50;;
11761;SDS011;5938;47.098;15.474;2022-07-06T00:32:46;8.30;;;7.60;;
11761;SDS011;5938;47.098;15.474;2022-07-06T00:36:49;8.30;;;7.60;;
11761;SDS011;5938;47.098;15.474;2022-07-06T00:40:53;10.37;;;8.90;;
11761;SDS011;5938;47.098;15.474;2022-07-06T00:44:56;8.60;;;8.00;;
11761;SDS011;5938;47.098;15.474;2022-07-06T00:49:01;8.00;;;7.30;;
11761;SDS011;5938;47.098;15.474;2022-07-06T00:53:05;9.60;;;8.63;;
11761;SDS011;5938;47.098;15.474;2022-07-06T00:57:10;9.87;;;8.90;;
11761;SDS011;5938;47.098;15.474;2022-07-06T01:01:13;7.80;;;7.30;;
11761;SDS011;5938;47.098;15.474;2022-07-06T01:05:18;8.33;;;7.63;;
11761;SDS011;5938;47.098;15.474;2022-07-06T01:09:22;8.67;;;8.07;;
11761;SDS011;5938;47.098;15.474;2022-07-06T01:13:25;9.30;;;8.60;;
11761;SDS011;5938;47.098;15.474;2022-07-06T01:17:30;9.20;;;8.40;;
11761;SDS011;5938;47.098;15.474;2022-07-06T01:21:37;10.50;;;9.63;;
11761;SDS011;5938;47.098;15.474;2022-07-06T01:25:40;9.20;;;8.50;;
11761;SDS011;5938;47.098;15.474;2022-07-06T01:29:44;8.80;;;7.97;;
11761;SDS011;5938;47.098;15.474;2022-07-06T01:33:48;9.40;;;8.50;;
11761;SDS011;5938;47.098;15.474;2022-07-06T01:37:53;8.37;;;7.77;;
11761;SDS011;5938;47.098;15.474;2022-07-06T01:41:56;10.00;;;9.20;;
11761;SDS011;5938;47.098;15.474;2022-07-06T01:46:00;11.03;;;10.17;;
11761;SDS011;5938;47.098;15.474;2022-07-06T01:50:05;9.37;;;8.67;;
11761;SDS011;5938;47.098;15.474;2022-07-06T01:54:11;9.10;;;8.40;;
11761;SDS011;5938;47.098;15.474;2022-07-06T01:58:16;9.57;;;8.97;;
11761;SDS011;5938;47.098;15.474;2022-07-06T02:02:20;10.17;;;9.37;;
11761;SDS011;5938;47.098;15.474;2022-07-06T02:06:23;11.10;;;10.30;;
11761;SDS011;5938;47.098;15.474;2022-07-06T02:10:28;10.40;;;9.50;;
11761;SDS011;5938;47.098;15.474;2022-07-06T02:14:31;8.90;;;8.20;;
11761;SDS011;5938;47.098;15.474;2022-07-06T02:18:34;10.77;;;9.87;;
11761;SDS011;5938;47.098;15.474;2022-07-06T02:22:38;9.90;;;9.20;;
11761;SDS011;5938;47.098;15.474;2022-07-06T02:26:43;9.93;;;9.20;;
11761;SDS011;5938;47.098;15.474;2022-07-06T02:30:46;9.77;;;8.97;;
11761;SDS011;5938;47.098;15.474;2022-07-06T02:34:49;9.70;;;9.00;;
11761;SDS011;5938;47.098;15.474;2022-07-06T02:38:54;10.20;;;9.30;;
11761;SDS011;5938;47.098;15.474;2022-07-06T02:42:59;9.43;;;8.73;;
11761;SDS011;5938;47.098;15.474;2022-07-06T02:47:03;10.00;;;9.10;;
11761;SDS011;5938;47.098;15.474;2022-07-06T02:51:06;10.97;;;9.97;;
11761;SDS011;5938;47.098;15.474;2022-07-06T02:55:10;11.33;;;10.30;;
11761;SDS011;5938;47.098;15.474;2022-07-06T02:59:15;9.10;;;8.43;;
11761;SDS011;5938;47.098;15.474;2022-07-06T03:03:18;10.73;;;9.83;;
11761;SDS011;5938;47.098;15.474;2022-07-06T03:07:21;11.87;;;10.77;;
11761;SDS011;5938;47.098;15.474;2022-07-06T03:11:25;11.30;;;10.50;;
11761;SDS011;5938;47.098;15.474;2022-07-06T03:15:29;11.40;;;10.37;;
11761;SDS011;5938;47.098;15.474;2022-07-06T03:19:33;10.20;;;9.30;;
11761;SDS011;5938;47.098;15.474;2022-07-06T03:23:36;10.20;;;9.40;;
11761;SDS011;5938;47.098;15.474;2022-07-06T03:27:39;11.33;;;10.53;;
11761;SDS011;5938;47.098;15.474;2022-07-06T03:31:44;11.90;;;11.00;;
11761;SDS011;5938;47.098;15.474;2022-07-06T03:35:48;10.80;;;9.80;;
11761;SDS011;5938;47.098;15.474;2022-07-06T03:39:51;10.87;;;10.07;;
11761;SDS011;5938;47.098;15.474;2022-07-06T03:43:54;11.83;;;10.80;;
11761;SDS011;5938;47.098;15.474;2022-07-06T03:48:03;10.73;;;9.83;;
11761;SDS011;5938;47.098;15.474;2022-07-06T03:52:07;11.20;;;10.20;;
11761;SDS011;5938;47.098;15.474;2022-07-06T03:56:10;10.87;;;9.90;;
11761;SDS011;5938;47.098;15.474;2022-07-06T04:00:34;11.40;;;10.27;;
11761;SDS011;5938;47.098;15.474;2022-07-06T04:04:40;9.90;;;9.20;;
11761;SDS011;5938;47.098;15.474;2022-07-06T04:08:44;10.20;;;9.40;;
11761;SDS011;5938;47.098;15.474;2022-07-06T04:12:47;11.40;;;10.60;;
11761;SDS011;5938;47.098;15.474;2022-07-06T04:16:50;9.27;;;8.57;;
11761;SDS011;5938;47.098;15.474;2022-07-06T04:20:55;9.30;;;8.60;;
11761;SDS011;5938;47.098;15.474;2022-07-06T04:25:02;9.37;;;8.73;;
11761;SDS011;5938;47.098;15.474;2022-07-06T04:29:07;9.30;;;8.50;;
11761;SDS011;5938;47.098;15.474;2022-07-06T04:33:11;9.07;;;8.37;;
11761;SDS011;5938;47.098;15.474;2022-07-06T04:37:15;8.93;;;8.03;;
11761;SDS011;5938;47.098;15.474;2022-07-06T04:41:18;8.23;;;7.60;;
11761;SDS011;5938;47.098;15.474;2022-07-06T04:45:22;10.07;;;7.63;;
11761;SDS011;5938;47.098;15.474;2022-07-06T04:49:25;8.60;;;7.90;;
11761;SDS011;5938;47.098;15.474;2022-07-06T04:53:30;9.60;;;8.80;;
11761;SDS011;5938;47.098;15.474;2022-07-06T04:57:33;9.53;;;8.77;;
11761;SDS011;5938;47.098;15.474;2022-07-06T05:01:37;8.77;;;8.17;;
11761;SDS011;5938;47.098;15.474;2022-07-06T05:05:40;9.10;;;8.40;;
11761;SDS011;5938;47.098;15.474;2022-07-06T05:09:44;10.47;;;9.47;;
11761;SDS011;5938;47.098;15.474;2022-07-06T05:13:52;9.30;;;8.40;;
11761;SDS011;5938;47.098;15.474;2022-07-06T05:17:56;9.60;;;8.80;;
11761;SDS011;5938;47.098;15.474;2022-07-06T05:21:59;9.10;;;8.20;;
11761;SDS011;5938;47.098;15.474;2022-07-06T05:26:05;9.17;;;8.50;;
11761;SDS011;5938;47.098;15.474;2022-07-06T05:30:09;8.70;;;8.00;;
11761;SDS011;5938;47.098;15.474;2022-07-06T05:34:13;9.37;;;8.57;;
11761;SDS011;5938;47.098;15.474;2022-07-06T05:38:16;8.17;;;7.57;;
11761;SDS011;5938;47.098;15.474;2022-07-06T05:42:21;9.67;;;8.70;;
11761;SDS011;5938;47.098;15.474;2022-07-06T05:46:24;8.40;;;7.70;;
11761;SDS011;5938;47.098;15.474;2022-07-06T05:50:29;8.97;;;8.27;;
11761;SDS011;5938;47.098;15.474;2022-07-06T05:54:32;8.40;;;7.47;;
11761;SDS011;5938;47.098;15.474;2022-07-06T05:58:36;8.00;;;7.17;;
11761;SDS011;5938;47.098;15.474;2022-07-06T06:02:40;7.40;;;6.73;;
11761;SDS011;5938;47.098;15.474;2022-07-06T06:06:45;7.27;;;6.87;;
11761;SDS011;5938;47.098;15.474;2022-07-06T06:10:48;6.63;;;6.13;;
11761;SDS011;5938;47.098;15.474;2022-07-06T06:14:52;7.57;;;6.83;;
11761;SDS011;5938;47.098;15.474;2022-07-06T06:18:56;5.67;;;5.20;;
11761;SDS011;5938;47.098;15.474;2022-07-06T06:22:59;6.20;;;5.60;;
11761;SDS011;5938;47.098;15.474;2022-07-06T06:27:05;5.73;;;5.23;;
11761;SDS011;5938;47.098;15.474;2022-07-06T06:31:11;8.20;;;6.33;;
11761;SDS011;5938;47.098;15.474;2022-07-06T06:35:14;5.03;;;4.67;;
11761;SDS011;5938;47.098;15.474;2022-07-06T06:39:17;5.33;;;4.93;;
11761;SDS011;5938;47.098;15.474;2022-07-06T06:43:21;6.80;;;5.10;;
11761;SDS011;5938;47.098;15.474;2022-07-06T06:47:26;5.00;;;4.60;;
11761;SDS011;5938;47.098;15.474;2022-07-06T06:51:29;4.40;;;4.00;;
11761;SDS011;5938;47.098;15.474;2022-07-06T06:55:33;6.20;;;5.80;;
11761;SDS011;5938;47.098;15.474;2022-07-06T06:59:36;4.70;;;4.40;;
11761;SDS011;5938;47.098;15.474;2022-07-06T07:03:41;4.73;;;4.33;;
11761;SDS011;5938;47.098;15.474;2022-07-06T07:07:44;4.60;;;4.20;;
11761;SDS011;5938;47.098;15.474;2022-07-06T07:11:48;5.13;;;4.40;;
11761;SDS011;5938;47.098;15.474;2022-07-06T07:15:51;3.70;;;3.50;;
11761;SDS011;5938;47.098;15.474;2022-07-06T07:19:56;4.63;;;3.40;;
11761;SDS011;5938;47.098;15.474;2022-07-06T07:23:59;4.80;;;4.40;;
11761;SDS011;5938;47.098;15.474;2022-07-06T07:28:10;4.37;;;4.00;;
11761;SDS011;5938;47.098;15.474;2022-07-06T07:32:14;4.63;;;4.23;;
11761;SDS011;5938;47.098;15.474;2022-07-06T07:36:18;4.00;;;3.80;;
11761;SDS011;5938;47.098;15.474;2022-07-06T07:40:22;4.93;;;3.70;;
11761;SDS011;5938;47.098;15.474;2022-07-06T07:44:26;9.53;;;4.10;;
11761;SDS011;5938;47.098;15.474;2022-07-06T07:48:33;3.80;;;3.50;;
11761;SDS011;5938;47.098;15.474;2022-07-06T07:52:37;3.93;;;3.67;;
11761;SDS011;5938;47.098;15.474;2022-07-06T07:56:41;3.80;;;3.50;;
11761;SDS011;5938;47.098;15.474;2022-07-06T08:00:44;4.10;;;3.80;;
11761;SDS011;5938;47.098;15.474;2022-07-06T08:04:48;4.70;;;3.23;;
11761;SDS011;5938;47.098;15.474;2022-07-06T08:08:53;3.00;;;2.80;;
11761;SDS011;5938;47.098;15.474;2022-07-06T08:12:56;4.40;;;3.40;;
11761;SDS011;5938;47.098;15.474;2022-07-06T08:17:00;3.00;;;2.80;;
11761;SDS011;5938;47.098;15.474;2022-07-06T08:21:03;3.50;;;3.20;;
11761;SDS011;5938;47.098;15.474;2022-07-06T08:25:26;2.93;;;2.73;;
11761;SDS011;5938;47.098;15.474;2022-07-06T08:29:31;3.00;;;2.67;;
11761;SDS011;5938;47.098;15.474;2022-07-06T08:33:34;2.53;;;2.33;;
11761;SDS011;5938;47.098;15.474;2022-07-06T08:37:38;3.37;;;2.70;;
11761;SDS011;5938;47.098;15.474;2022-07-06T08:41:42;2.63;;;2.33;;
11761;SDS011;5938;47.098;15.474;2022-07-06T08:45:50;2.57;;;2.30;;
11761;SDS011;5938;47.098;15.474;2022-07-06T08:49:56;2.60;;;2.40;;
11761;SDS011;5938;47.098;15.474;2022-07-06T08:54:00;2.20;;;2.03;;
11761;SDS011;5938;47.098;15.474;2022-07-06T08:58:07;2.30;;;2.20;;
11761;SDS011;5938;47.098;15.474;2022-07-06T09:02:11;2.90;;;2.23;;
11761;SDS011;5938;47.098;15.474;2022-07-06T09:06:16;4.20;;;1.90;;
11761;SDS011;5938;47.098;15.474;2022-07-06T09:10:26;2.43;;;2.27;;
11761;SDS011;5938;47.098;15.474;2022-07-06T09:14:31;2.80;;;1.80;;
11761;SDS011;5938;47.098;15.474;2022-07-06T09:18:36;2.87;;;1.90;;
11761;SDS011;5938;47.098;15.474;2022-07-06T09:22:40;3.20;;;2.50;;
11761;SDS011;5938;47.098;15.474;2022-07-06T09:26:44;2.20;;;1.83;;
11761;SDS011;5938;47.098;15.474;2022-07-06T09:30:51;3.63;;;2.00;;
11761;SDS011;5938;47.098;15.474;2022-07-06T09:35:06;3.13;;;1.90;;
11761;SDS011;5938;47.098;15.474;2022-07-06T09:39:16;2.53;;;2.33;;
11761;SDS011;5938;47.098;15.474;2022-07-06T09:43:21;2.10;;;1.90;;
11761;SDS011;5938;47.098;15.474;2022-07-06T09:47:27;1.93;;;1.60;;
11761;SDS011;5938;47.098;15.474;2022-07-06T09:51:35;1.93;;;1.60;;
11761;SDS011;5938;47.098;15.474;2022-07-06T09:55:39;3.03;;;2.10;;
11761;SDS011;5938;47.098;15.474;2022-07-06T09:59:49;3.07;;;2.07;;
11761;SDS011;5938;47.098;15.474;2022-07-06T10:03:55;2.03;;;1.93;;
11761;SDS011;5938;47.098;15.474;2022-07-06T10:07:59;6.47;;;2.03;;
11761;SDS011;5938;47.098;15.474;2022-07-06T10:12:04;1.90;;;1.70;;
11761;SDS011;5938;47.098;15.474;2022-07-06T10:16:13;1.30;;;1.20;;
11761;SDS011;5938;47.098;15.474;2022-07-06T10:20:19;1.93;;;1.73;;
11761;SDS011;5938;47.098;15.474;2022-07-06T10:24:23;1.80;;;1.70;;
11761;SDS011;5938;47.098;15.474;2022-07-06T10:28:29;1.90;;;1.80;;
11761;SDS011;5938;47.098;15.474;2022-07-06T10:32:34;1.67;;;1.57;;
11761;SDS011;5938;47.098;15.474;2022-07-06T10:36:42;1.70;;;1.60;;
11761;SDS011;5938;47.098;15.474;2022-07-06T10:40:47;1.90;;;1.50;;
11761;SDS011;5938;47.098;15.474;2022-07-06T10:45:07;1.67;;;1.50;;
11761;SDS011;5938;47.098;15.474;2022-07-06T10:49:14;1.10;;;1.10;;
11761;SDS011;5938;47.098;15.474;2022-07-06T10:53:42;1.53;;;1.43;;
11761;SDS011;5938;47.098;15.474;2022-07-06T10:57:52;1.73;;;1.43;;
11761;SDS011;5938;47.098;15.474;2022-07-06T11:02:16;2.10;;;2.00;;
11761;SDS011;5938;47.098;15.474;2022-07-06T11:06:22;1.60;;;1.50;;
11761;SDS011;5938;47.098;15.474;2022-07-06T11:10:30;1.73;;;1.40;;
11761;SDS011;5938;47.098;15.474;2022-07-06T11:14:50;2.67;;;1.47;;
11761;SDS011;5938;47.098;15.474;2022-07-06T11:19:05;1.47;;;1.37;;
11761;SDS011;5938;47.098;15.474;2022-07-06T11:23:11;1.53;;;1.43;;
11761;SDS011;5938;47.098;15.474;2022-07-06T11:27:21;1.50;;;1.40;;
11761;SDS011;5938;47.098;15.474;2022-07-06T11:31:27;1.23;;;1.13;;
11761;SDS011;5938;47.098;15.474;2022-07-06T11:35:30;1.70;;;1.60;;
11761;SDS011;5938;47.098;15.474;2022-07-06T11:39:34;3.00;;;1.50;;
11761;SDS011;5938;47.098;15.474;2022-07-06T11:43:43;1.60;;;1.50;;
11761;SDS011;5938;47.098;15.474;2022-07-06T11:47:47;1.30;;;1.20;;
11761;SDS011;5938;47.098;15.474;2022-07-06T11:51:50;2.80;;;1.50;;
11761;SDS011;5938;47.098;15.474;2022-07-06T11:55:53;1.80;;;1.20;;
11761;SDS011;5938;47.098;15.474;2022-07-06T11:59:58;1.33;;;1.23;;
11761;SDS011;5938;47.098;15.474;2022-07-06T12:04:01;1.47;;;1.37;;
11761;SDS011;5938;47.098;15.474;2022-07-06T12:08:06;1.83;;;1.10;;
11761;SDS011;5938;47.098;15.474;2022-07-06T12:12:10;1.30;;;1.20;;
11761;SDS011;5938;47.098;15.474;2022-07-06T12:16:16;1.70;;;1.43;;
11761;SDS011;5938;47.098;15.474;2022-07-06T12:20:19;1.10;;;1.00;;
11761;SDS011;5938;47.098;15.474;2022-07-06T12:24:23;1.27;;;1.17;;
11761;SDS011;5938;47.098;15.474;2022-07-06T12:28:29;3.70;;;1.77;;
11761;SDS011;5938;47.098;15.474;2022-07-06T12:32:33;1.00;;;1.00;;
11761;SDS011;5938;47.098;15.474;2022-07-06T12:36:41;6.03;;;1.50;;
11761;SDS011;5938;47.098;15.474;2022-07-06T12:40:47;2.00;;;1.30;;
11761;SDS011;5938;47.098;15.474;2022-07-06T12:44:51;2.30;;;1.10;;
11761;SDS011;5938;47.098;15.474;2022-07-06T12:48:56;2.00;;;1.03;;
11761;SDS011;5938;47.098;15.474;2022-07-06T12:53:23;3.10;;;1.17;;
11761;SDS011;5938;47.098;15.474;2022-07-06T12:57:41;1.23;;;1.13;;
11761;SDS011;5938;47.098;15.474;2022-07-06T13:01:46;1.30;;;1.20;;
11761;SDS011;5938;47.098;15.474;2022-07-06T13:05:53;3.20;;;1.60;;
11761;SDS011;5938;47.098;15.474;2022-07-06T13:09:57;1.40;;;1.30;;
11761;SDS011;5938;47.098;15.474;2022-07-06T13:14:01;1.87;;;1.30;;
11761;SDS011;5938;47.098;15.474;2022-07-06T13:18:04;2.07;;;1.50;;
11761;SDS011;5938;47.098;15.474;2022-07-06T13:22:15;1.50;;;1.40;;
11761;SDS011;5938;47.098;15.474;2022-07-06T13:26:18;1.30;;;1.20;;
11761;SDS011;5938;47.098;15.474;2022-07-06T13:30:22;1.47;;;1.20;;
11761;SDS011;5938;47.098;15.474;2022-07-06T13:34:26;2.03;;;1.23;;
11761;SDS011;5938;47.098;15.474;2022-07-06T13:38:30;1.53;;;1.43;;
11761;SDS011;5938;47.098;15.474;2022-07-06T13:42:33;1.30;;;1.20;;
11761;SDS011;5938;47.098;15.474;2022-07-06T13:46:37;1.67;;;1.30;;
11761;SDS011;5938;47.098;15.474;2022-07-06T13:50:41;1.60;;;1.50;;
11761;SDS011;5938;47.098;15.474;2022-07-06T13:54:46;1.60;;;1.50;;
11761;SDS011;5938;47.098;15.474;2022-07-06T13:58:50;1.70;;;1.60;;
11761;SDS011;5938;47.098;15.474;2022-07-06T14:02:53;1.37;;;1.27;;
11761;SDS011;5938;47.098;15.474;2022-07-06T14:06:57;1.63;;;1.17;;
11761;SDS011;5938;47.098;15.474;2022-07-06T14:11:01;1.40;;;1.17;;
11761;SDS011;5938;47.098;15.474;2022-07-06T14:15:07;1.33;;;1.23;;
11761;SDS011;5938;47.098;15.474;2022-07-06T14:19:10;1.87;;;1.53;;
11761;SDS011;5938;47.098;15.474;2022-07-06T14:23:21;1.80;;;1.43;;
11761;SDS011;5938;47.098;15.474;2022-07-06T14:27:27;1.60;;;1.50;;
11761;SDS011;5938;47.098;15.474;2022-07-06T14:31:30;2.40;;;1.33;;
11761;SDS011;5938;47.098;15.474;2022-07-06T14:35:34;1.20;;;1.10;;
11761;SDS011;5938;47.098;15.474;2022-07-06T14:39:39;1.40;;;1.20;;
11761;SDS011;5938;47.098;15.474;2022-07-06T14:43:44;2.33;;;1.47;;
11761;SDS011;5938;47.098;15.474;2022-07-06T14:47:47;1.30;;;1.20;;
11761;SDS011;5938;47.098;15.474;2022-07-06T14:51:51;1.50;;;1.40;;
11761;SDS011;5938;47.098;15.474;2022-07-06T14:55:54;2.60;;;1.63;;
11761;SDS011;5938;47.098;15.474;2022-07-06T15:00:03;2.53;;;1.40;;
11761;SDS011;5938;47.098;15.474;2022-07-06T15:04:16;2.50;;;1.50;;
11761;SDS011;5938;47.098;15.474;2022-07-06T15:08:20;1.43;;;1.33;;
11761;SDS011;5938;47.098;15.474;2022-07-06T15:12:23;2.60;;;1.20;;
11761;SDS011;5938;47.098;15.474;2022-07-06T15:16:28;1.93;;;1.50;;
11761;SDS011;5938;47.098;15.474;2022-07-06T15:20:34;2.93;;;1.57;;
11761;SDS011;5938;47.098;15.474;2022-07-06T15:24:37;1.60;;;1.50;;
11761;SDS011;5938;47.098;15.474;2022-07-06T15:28:40;2.93;;;1.40;;
11761;SDS011;5938;47.098;15.474;2022-07-06T15:32:46;1.70;;;1.50;;
11761;SDS011;5938;47.098;15.474;2022-07-06T15:36:49;1.43;;;1.33;;
11761;SDS011;5938;47.098;15.474;2022-07-06T15:40:52;1.40;;;1.30;;
11761;SDS011;5938;47.098;15.474;2022-07-06T15:45:00;1.40;;;1.30;;
11761;SDS011;5938;47.098;15.474;2022-07-06T15:49:05;2.53;;;1.57;;
11761;SDS011;5938;47.098;15.474;2022-07-06T15:53:08;1.20;;;1.10;;
11761;SDS011;5938;47.098;15.474;2022-07-06T15:57:12;1.50;;;1.10;;
11761;SDS011;5938;47.098;15.474;2022-07-06T16:01:15;1.90;;;1.57;;
11761;SDS011;5938;47.098;15.474;2022-07-06T16:05:20;2.10;;;1.10;;
11761;SDS011;5938;47.098;15.474;2022-07-06T16:09:23;1.70;;;1.40;;
11761;SDS011;5938;47.098;15.474;2022-07-06T16:13:27;1.80;;;1.70;;
11761;SDS011;5938;47.098;15.474;2022-07-06T16:17:30;1.80;;;1.70;;
11761;SDS011;5938;47.098;15.474;2022-07-06T16:21:35;2.50;;;1.80;;
11761;SDS011;5938;47.098;15.474;2022-07-06T16:25:38;1.70;;;1.40;;
11761;SDS011;5938;47.098;15.474;2022-07-06T16:29:42;1.97;;;1.77;;
11761;SDS011;5938;47.098;15.474;2022-07-06T16:33:45;2.13;;;1.80;;
11761;SDS011;5938;47.098;15.474;2022-07-06T16:37:50;1.70;;;1.37;;
11761;SDS011;5938;47.098;15.474;2022-07-06T16:41:55;1.43;;;1.30;;
11761;SDS011;5938;47.098;15.474;2022-07-06T16:45:59;2.87;;;2.10;;
11761;SDS011;5938;47.098;15.474;2022-07-06T16:50:08;2.00;;;1.80;;
11761;SDS011;5938;47.098;15.474;2022-07-06T16:54:12;3.30;;;1.80;;
11761;SDS011;5938;47.098;15.474;2022-07-06T16:58:16;3.27;;;2.43;;
11761;SDS011;5938;47.098;15.474;2022-07-06T17:02:19;2.10;;;2.00;;
11761;SDS011;5938;47.098;15.474;2022-07-06T17:06:24;2.57;;;2.37;;
11761;SDS011;5938;47.098;15.474;2022-07-06T17:10:30;2.20;;;2.10;;
11761;SDS011;5938;47.098;15.474;2022-07-06T17:14:34;2.80;;;2.60;;
11761;SDS011;5938;47.098;15.474;2022-07-06T17:18:37;2.43;;;2.23;;
11761;SDS011;5938;47.098;15.474;2022-07-06T17:22:41;2.53;;;2.33;;
11761;SDS011;5938;47.098;15.474;2022-07-06T17:26:46;2.40;;;2.20;;
11761;SDS011;5938;47.098;15.474;2022-07-06T17:30:50;4.40;;;2.10;;
11761;SDS011;5938;47.098;15.474;2022-07-06T17:34:54;2.50;;;2.40;;
11761;SDS011;5938;47.098;15.474;2022-07-06T17:38:57;2.53;;;2.43;;
11761;SDS011;5938;47.098;15.474;2022-07-06T17:43:03;2.67;;;2.50;;
11761;SDS011;5938;47.098;15.474;2022-07-06T17:47:07;2.93;;;2.73;;
11761;SDS011;5938;47.098;15.474;2022-07-06T17:51:11;2.43;;;2.33;;
11761;SDS011;5938;47.098;15.474;2022-07-06T17:55:14;2.27;;;2.17;;
11761;SDS011;5938;47.098;15.474;2022-07-06T17:59:24;2.63;;;2.43;;
11761;SDS011;5938;47.098;15.474;2022-07-06T18:03:31;2.67;;;2.33;;
11761;SDS011;5938;47.098;15.474;2022-07-06T18:07:42;2.00;;;1.90;;
11761;SDS011;5938;47.098;15.474;2022-07-06T18:11:55;2.87;;;2.70;;
11761;SDS011;5938;47.098;15.474;2022-07-06T18:16:01;2.73;;;2.53;;
11761;SDS011;5938;47.098;15.474;2022-07-06T18:20:10;3.00;;;2.80;;
11761;SDS011;5938;47.098;15.474;2022-07-06T18:24:26;2.57;;;2.47;;
11761;SDS011;5938;47.098;15.474;2022-07-06T18:28:30;2.70;;;2.50;;
11761;SDS011;5938;47.098;15.474;2022-07-06T18:32:37;2.70;;;2.50;;
11761;SDS011;5938;47.098;15.474;2022-07-06T18:36:44;3.43;;;3.13;;
11761;SDS011;5938;47.098;15.474;2022-07-06T18:40:49;2.37;;;2.27;;
11761;SDS011;5938;47.098;15.474;2022-07-06T18:44:57;2.97;;;2.77;;
11761;SDS011;5938;47.098;15.474;2022-07-06T18:49:04;4.03;;;2.63;;
11761;SDS011;5938;47.098;15.474;2022-07-06T18:53:10;2.80;;;2.60;;
11761;SDS011;5938;47.098;15.474;2022-07-06T18:57:19;4.63;;;3.20;;
11761;SDS011;5938;47.098;15.474;2022-07-06T19:01:29;2.60;;;2.50;;
11761;SDS011;5938;47.098;15.474;2022-07-06T19:05:34;2.93;;;2.73;;
11761;SDS011;5938;47.098;15.474;2022-07-06T19:09:38;2.57;;;2.37;;
11761;SDS011;5938;47.098;15.474;2022-07-06T19:13:45;2.90;;;2.70;;
11761;SDS011;5938;47.098;15.474;2022-07-06T19:17:59;3.13;;;2.83;;
11761;SDS011;5938;47.098;15.474;2022-07-06T19:22:12;3.60;;;3.30;;
11761;SDS011;5938;47.098;15.474;2022-07-06T19:26:34;3.20;;;2.90;;
11761;SDS011;5938;47.098;15.474;2022-07-06T19:30:56;3.13;;;2.93;;
11761;SDS011;5938;47.098;15.474;2022-07-06T19:35:22;4.20;;;3.10;;
11761;SDS011;5938;47.098;15.474;2022-07-06T19:39:48;3.57;;;3.27;;
11761;SDS011;5938;47.098;15.474;2022-07-06T19:43:59;3.97;;;3.73;;
11761;SDS011;5938;47.098;15.474;2022-07-06T19:48:08;6.50;;;3.37;;
11761;SDS011;5938;47.098;15.474;2022-07-06T19:52:27;3.57;;;3.37;;
11761;SDS011;5938;47.098;15.474;2022-07-06T19:56:35;4.00;;;3.70;;
11761;SDS011;5938;47.098;15.474;2022-07-06T20:00:47;3.57;;;3.37;;
11761;SDS011;5938;47.098;15.474;2022-07-06T20:04:57;4.13;;;3.83;;
11761;SDS011;5938;47.098;15.474;2022-07-06T20:09:10;4.20;;;3.80;;
11761;SDS011;5938;47.098;15.474;2022-07-06T20:13:23;3.37;;;3.10;;
11761;SDS011;5938;47.098;15.474;2022-07-06T20:17:33;4.53;;;4.13;;
11761;SDS011;5938;47.098;15.474;2022-07-06T20:21:43;3.40;;;3.20;;
11761;SDS011;5938;47.098;15.474;2022-07-06T20:25:58;5.00;;;3.47;;
11761;SDS011;5938;47.098;15.474;2022-07-06T20:30:10;9.40;;;3.90;;
11761;SDS011;5938;47.098;15.474;2022-07-06T21:11:23;4.20;;;3.90;;
11761;SDS011;5938;47.098;15.474;2022-07-06T21:15:26;5.00;;;4.60;;
11761;SDS011;5938;47.098;15.474;2022-07-06T21:19:30;4.43;;;4.23;;
11761;SDS011;5938;47.098;15.474;2022-07-06T21:23:33;10.30;;;4.47;;
11761;SDS011;5938;47.098;15.474;2022-07-06T21:27:40;4.83;;;4.53;;
11761;SDS011;5938;47.098;15.474;2022-07-06T21:31:43;4.27;;;4.00;;
11761;SDS011;5938;47.098;15.474;2022-07-06T21:35:47;5.03;;;4.63;;
11761;SDS011;5938;47.098;15.474;2022-07-06T21:39:50;4.67;;;4.37;;
11761;SDS011;5938;47.098;15.474;2022-07-06T21:43:55;4.50;;;4.10;;
11761;SDS011;5938;47.098;15.474;2022-07-06T21:47:59;4.80;;;4.40;;
11761;SDS011;5938;47.098;15.474;2022-07-06T21:52:03;4.87;;;4.47;;
11761;SDS011;5938;47.098;15.474;2022-07-06T21:56:07;4.87;;;4.57;;
11761;SDS011;5938;47.098;15.474;2022-07-06T22:00:13;5.63;;;5.23;;
11761;SDS011;5938;47.098;15.474;2022-07-06T22:04:18;5.27;;;4.87;;
11761;SDS011;5938;47.098;15.474;2022-07-06T22:08:21;7.93;;;4.60;;
11761;SDS011;5938;47.098;15.474;2022-07-06T22:12:25;5.10;;;4.80;;
11761;SDS011;5938;47.098;15.474;2022-07-06T22:16:30;5.20;;;4.80;;
11761;SDS011;5938;47.098;15.474;2022-07-06T22:20:34;6.77;;;6.27;;
11761;SDS011;5938;47.098;15.474;2022-07-06T22:24:37;6.10;;;5.57;;
11761;SDS011;5938;47.098;15.474;2022-07-06T22:28:41;5.90;;;5.30;;
11761;SDS011;5938;47.098;15.474;2022-07-06T22:32:46;8.70;;;5.97;;
11761;SDS011;5938;47.098;15.474;2022-07-06T22:36:49;5.07;;;4.77;;
11761;SDS011;5938;47.098;15.474;2022-07-06T22:40:53;6.10;;;5.53;;
11761;SDS011;5938;47.098;15.474;2022-07-06T22:45:08;6.00;;;5.50;;
11761;SDS011;5938;47.098;15.474;2022-07-06T22:49:13;5.80;;;5.33;;
11761;SDS011;5938;47.098;15.474;2022-07-06T22:53:16;7.90;;;6.10;;
11761;SDS011;5938;47.098;15.474;2022-07-06T22:57:20;5.87;;;5.47;;
11761;SDS011;5938;47.098;15.474;2022-07-06T23:01:23;6.43;;;6.03;;
11761;SDS011;5938;47.098;15.474;2022-07-06T23:05:28;7.20;;;6.57;;
11761;SDS011;5938;47.098;15.474;2022-07-06T23:09:32;6.00;;;5.50;;
11761;SDS011;5938;47.098;15.474;2022-07-06T23:13:35;5.60;;;5.20;;
11761;SDS011;5938;47.098;15.474;2022-07-06T23:17:38;6.73;;;6.10;;
11761;SDS011;5938;47.098;15.474;2022-07-06T23:21:43;6.87;;;6.37;;
11761;SDS011;5938;47.098;15.474;2022-07-06T23:25:47;6.50;;;6.03;;
11761;SDS011;5938;47.098;15.474;2022-07-06T23:29:50;6.20;;;5.80;;
11761;SDS011;5938;47.098;15.474;2022-07-06T23:33:54;8.17;;;5.57;;
11761;SDS011;5938;47.098;15.474;2022-07-06T23:37:58;7.50;;;6.97;;
11761;SDS011;5938;47.098;15.474;2022-07-06T23:42:02;6.60;;;6.00;;
11761;SDS011;5938;47.098;15.474;2022-07-06T23:46:06;6.27;;;5.80;;
11761;SDS011;5938;47.098;15.474;2022-07-06T23:50:10;7.27;;;6.73;;
11761;SDS011;5938;47.098;15.474;2022-07-06T23:54:14;6.47;;;6.07;;
11761;SDS011;5938;47.098;15.474;2022-07-06T23:58:18;5.80;;;5.40;;
